Time;durP1;ratioP1;P1;durP2;ratioP2;P2;SDS_P1;SDS_P2;PMS_P1;PMS_P2;Temp;Humidity;BMP_temperature;BMP_pressure;BME280_temperature;BME280_humidity;BME280_pressure;Samples;Min_cycle;Max_cycle;Signal;HPM_P1;HPM_P2
2021/12/20 00:01:07;;;;;;;1.40;0.80;;;;;;;15.55;35.08;96391.78;5083970;28;20043;-63
2021/12/20 00:03:34;;;;;;;3.03;1.08;;;;;;;15.70;34.98;96401.16;5078140;28;20028;-61
2021/12/20 00:05:59;;;;;;;1.02;0.80;;;;;;;15.84;34.32;96404.44;5095111;28;20054;-69
2021/12/20 00:08:26;;;;;;;2.78;1.13;;;;;;;15.93;34.21;96402.25;5089853;28;20395;-65
2021/12/20 00:10:51;;;;;;;0.80;0.65;;;;;;;16.03;34.19;96407.81;5082011;28;20056;-68
2021/12/20 00:13:17;;;;;;;0.77;0.77;;;;;;;16.12;34.00;96414.41;5075207;28;20028;-72
2021/12/20 00:15:44;;;;;;;1.15;0.90;;;;;;;16.20;33.38;96412.44;5091222;28;20036;-73
2021/12/20 00:18:09;;;;;;;1.33;0.95;;;;;;;16.27;33.82;96413.09;5086246;28;20188;-65
2021/12/20 00:20:35;;;;;;;1.27;0.80;;;;;;;16.34;33.67;96416.47;5084619;28;20435;-65
2021/12/20 00:23:00;;;;;;;1.25;0.80;;;;;;;16.40;33.26;96428.84;5091500;28;20039;-68
2021/12/20 00:25:26;;;;;;;1.27;0.80;;;;;;;16.46;33.09;96424.47;5074279;28;20037;-71
2021/12/20 00:27:51;;;;;;;0.70;0.60;;;;;;;16.52;33.08;96428.84;5077727;28;20085;-69
2021/12/20 00:30:17;;;;;;;3.58;1.08;;;;;;;16.57;33.12;96423.63;5094155;28;20128;-65
2021/12/20 00:32:43;;;;;;;1.10;0.80;;;;;;;16.60;33.16;96425.81;5094767;28;20475;-65
2021/12/20 00:35:09;;;;;;;1.75;0.93;;;;;;;16.65;33.08;96429.63;5094669;28;20430;-64
2021/12/20 00:40:22;;;;;;;1.35;0.90;;;;;;;16.73;32.73;96438.06;5084910;28;20455;-65
2021/12/20 00:43:00;;;;;;;0.70;0.60;;;;;;;16.77;32.71;96439.22;5089943;28;20089;-63
2021/12/20 00:45:28;;;;;;;0.60;0.50;;;;;;;16.80;32.45;96437.13;5094194;28;20047;-63
2021/12/20 00:47:54;;;;;;;1.45;0.75;;;;;;;16.83;32.64;96444.69;5093910;28;20035;-63
2021/12/20 00:50:21;;;;;;;1.15;0.70;;;;;;;16.87;32.62;96453.81;5076972;28;20036;-63
2021/12/20 00:52:48;;;;;;;0.68;0.60;;;;;;;16.88;32.22;96452.78;5081002;28;20117;-64
2021/12/20 00:55:16;;;;;;;0.77;0.57;;;;;;;16.91;32.69;96452.31;5094017;28;20028;-64
2021/12/20 00:57:46;;;;;;;1.45;0.80;;;;;;;16.95;32.42;96455.34;5090410;28;20043;-62
2021/12/20 01:00:14;;;;;;;1.30;0.80;;;;;;;16.97;32.74;96458.59;5082336;28;20032;-63
2021/12/20 01:02:40;;;;;;;0.80;0.60;;;;;;;17.00;32.57;96466.13;5093621;28;20085;-64
2021/12/20 01:05:07;;;;;;;1.02;0.50;;;;;;;17.01;32.38;96465.88;5093562;28;20109;-64
2021/12/20 01:07:33;;;;;;;0.98;0.60;;;;;;;17.04;31.94;96472.63;5093345;28;20031;-63
2021/12/20 01:10:02;;;;;;;1.50;0.73;;;;;;;17.06;32.10;96473.16;5086011;28;20032;-65
2021/12/20 01:12:33;;;;;;;0.80;0.68;;;;;;;17.07;32.13;96478.28;5073473;28;20040;-62
2021/12/20 01:15:01;;;;;;;1.17;0.80;;;;;;;17.09;32.56;96478.03;5087742;28;20035;-62
2021/12/20 01:17:26;;;;;;;0.82;0.63;;;;;;;17.14;32.08;96493.34;5086287;28;20055;-63
2021/12/20 01:19:52;;;;;;;0.90;0.60;;;;;;;17.14;32.17;96493.34;5093637;28;20495;-63
2021/12/20 01:22:17;;;;;;;1.15;0.55;;;;;;;17.16;32.16;96494.75;5093821;28;20123;-64
2021/12/20 01:24:43;;;;;;;1.23;0.70;;;;;;;17.21;32.22;96507.41;5087371;28;20047;-64
2021/12/20 01:27:09;;;;;;;1.02;0.70;;;;;;;17.23;32.15;96497.28;5080625;28;20056;-63
2021/12/20 01:29:34;;;;;;;1.60;0.63;;;;;;;17.24;31.86;96506.94;5073274;28;20085;-62
2021/12/20 01:32:00;;;;;;;1.58;0.73;;;;;;;17.26;31.83;96504.81;5087409;28;20085;-63
2021/12/20 01:34:25;;;;;;;1.08;0.70;;;;;;;17.28;32.09;96513.38;5072710;28;20491;-62
2021/12/20 01:36:51;;;;;;;5.00;0.88;;;;;;;17.29;31.90;96509.66;5091429;28;20042;-61
2021/12/20 01:39:17;;;;;;;4.00;0.65;;;;;;;17.30;31.90;96516.63;5093261;28;20565;-61
2021/12/20 01:41:44;;;;;;;0.77;0.50;;;;;;;17.31;31.99;96510.25;5093892;28;20036;-63
2021/12/20 01:44:10;;;;;;;1.38;0.75;;;;;;;17.32;31.56;96511.88;5076468;28;20123;-62
2021/12/20 01:46:36;;;;;;;2.90;0.80;;;;;;;17.33;31.61;96512.69;5073066;28;20158;-62
2021/12/20 01:49:05;;;;;;;3.10;0.55;;;;;;;17.34;31.22;96531.16;5077364;28;20114;-62
2021/12/20 01:54:03;;;;;;;2.35;0.70;;;;;;;17.34;31.35;96527.69;5082461;28;20032;-62
2021/12/20 01:56:30;;;;;;;0.98;0.65;;;;;;;17.33;31.26;96526.88;5073054;28;20036;-62
2021/12/20 01:59:05;;;;;;;1.05;0.65;;;;;;;17.31;31.39;96528.94;5073028;28;20035;-62
2021/12/20 02:01:31;;;;;;;2.45;0.65;;;;;;;17.32;31.51;96532.47;5072848;28;20042;-62
2021/12/20 02:04:00;;;;;;;1.02;0.65;;;;;;;17.33;31.25;96540.22;5072506;28;20028;-62
2021/12/20 02:06:34;;;;;;;1.15;0.70;;;;;;;17.34;31.29;96543.72;5072889;28;20380;-62
2021/12/20 02:09:06;;;;;;;0.80;0.55;;;;;;;17.34;31.28;96544.53;5072578;28;20032;-62
2021/12/20 02:11:32;;;;;;;1.30;0.60;;;;;;;17.33;31.21;96550.13;5072888;28;20086;-62
2021/12/20 02:13:58;;;;;;;0.57;0.40;;;;;;;17.33;31.42;96553.59;5072499;28;20097;-62
2021/12/20 02:16:24;;;;;;;1.80;0.63;;;;;;;17.33;31.41;96550.91;5073035;28;20417;-62
2021/12/20 02:18:50;;;;;;;2.97;0.50;;;;;;;17.35;31.51;96556.03;5093742;28;20024;-62
2021/12/20 02:21:16;;;;;;;0.85;0.65;;;;;;;17.35;30.97;96551.50;5072415;28;20035;-62
2021/12/20 02:23:41;;;;;;;4.43;1.95;;;;;;;17.37;31.22;96559.25;5072401;28;20051;-62
2021/12/20 02:26:07;;;;;;;0.70;0.40;;;;;;;17.37;31.15;96560.09;5072466;28;20044;-62
2021/12/20 02:28:41;;;;;;;1.45;0.50;;;;;;;17.40;31.35;96556.13;5072114;28;20045;-62
2021/12/20 02:39:17;;;;;;;1.25;0.70;;;;;;;17.41;31.29;96589.81;5084994;28;20390;-63
2021/12/20 02:41:43;;;;;;;0.75;0.70;;;;;;;17.44;31.24;96599.22;5077364;28;20040;-63
2021/12/20 02:44:17;;;;;;;1.15;0.43;;;;;;;17.44;31.40;96604.56;5072570;28;20491;-63
2021/12/20 02:46:50;;;;;;;1.33;0.50;;;;;;;17.43;31.29;96602.94;5072523;28;20414;-63
2021/12/20 02:49:21;;;;;;;0.57;0.30;;;;;;;17.43;31.64;96621.63;5072944;28;20166;-63
2021/12/20 02:51:50;;;;;;;1.13;0.57;;;;;;;17.43;31.25;96617.13;5072868;28;20040;-63
2021/12/20 02:54:17;;;;;;;1.33;0.55;;;;;;;17.43;31.42;96608.28;5072195;28;20040;-63
2021/12/20 02:56:43;;;;;;;0.95;0.50;;;;;;;17.44;30.92;96617.91;5072322;28;20036;-63
2021/12/20 02:59:09;;;;;;;1.15;0.50;;;;;;;17.42;31.05;96620.03;5071748;28;20028;-63
2021/12/20 03:01:38;;;;;;;1.08;0.60;;;;;;;17.44;31.16;96629.44;5071258;28;20090;-63
2021/12/20 03:04:05;;;;;;;0.85;0.50;;;;;;;17.43;31.32;96629.66;5071891;28;20474;-63
2021/12/20 03:06:43;;;;;;;1.25;0.60;;;;;;;17.43;31.17;96630.47;5073920;28;20039;-63
2021/12/20 03:09:13;;;;;;;0.70;0.60;;;;;;;17.42;31.09;96638.75;5076117;28;20062;-63
2021/12/20 03:11:39;;;;;;;0.80;0.60;;;;;;;17.44;31.41;96636.63;5075736;28;20041;-63
2021/12/20 03:14:41;;;;;;;0.73;0.60;;;;;;;17.43;31.03;96637.66;5076014;28;20028;-63
2021/12/20 03:16:58;;;;;;;0.82;0.70;;;;;;;17.42;30.85;96634.19;5073406;28;20068;-63
2021/12/20 03:19:25;;;;;;;1.02;0.55;;;;;;;17.44;31.17;96650.00;5075382;28;20024;-63
2021/12/20 03:21:51;;;;;;;1.08;0.68;;;;;;;17.45;30.85;96651.63;5075922;28;20033;-64
2021/12/20 03:24:16;;;;;;;1.15;0.73;;;;;;;17.45;30.93;96648.94;5075484;28;20032;-63
2021/12/20 03:26:42;;;;;;;1.38;0.70;;;;;;;17.45;30.71;96651.63;5075249;28;20029;-63
2021/12/20 03:29:08;;;;;;;1.00;0.70;;;;;;;17.46;30.78;96661.25;5081405;28;20380;-63
2021/12/20 03:31:34;;;;;;;1.48;0.70;;;;;;;17.45;30.72;96663.13;5075596;28;20043;-63
2021/12/20 03:34:00;;;;;;;0.55;0.45;;;;;;;17.45;30.83;96664.97;5075520;28;20034;-63
2021/12/20 03:36:26;;;;;;;0.88;0.65;;;;;;;17.46;30.97;96666.59;5088985;28;20039;-63
2021/12/20 03:38:52;;;;;;;0.80;0.60;;;;;;;17.45;31.01;96678.34;5095666;28;20031;-64
2021/12/20 03:41:18;;;;;;;0.80;0.63;;;;;;;17.44;30.76;96682.91;5096182;28;20036;-63
2021/12/20 03:43:44;;;;;;;0.80;0.50;;;;;;;17.44;30.46;96682.06;5086770;28;20499;-63
2021/12/20 03:46:10;;;;;;;1.33;0.63;;;;;;;17.44;30.67;96682.06;5076094;28;20032;-64
2021/12/20 03:48:35;;;;;;;1.13;0.63;;;;;;;17.43;30.72;96680.44;5082754;28;20082;-63
2021/12/20 03:51:03;;;;;;;1.65;0.70;;;;;;;17.45;30.62;96691.72;5095656;28;20494;-63
2021/12/20 03:53:30;;;;;;;1.35;0.68;;;;;;;17.43;30.45;96688.47;5095329;28;20035;-63
2021/12/20 03:55:56;;;;;;;0.98;0.68;;;;;;;17.42;30.53;96689.53;5095666;28;20028;-63
2021/12/20 03:58:23;;;;;;;2.53;0.60;;;;;;;17.42;30.32;96694.88;5093906;28;20161;-63
2021/12/20 04:00:49;;;;;;;0.60;0.50;;;;;;;17.42;30.57;96697.56;5088519;28;20481;-63
2021/12/20 04:03:15;;;;;;;0.98;0.60;;;;;;;17.41;30.88;96704.75;5095040;28;20070;-63
2021/12/20 04:05:42;;;;;;;1.10;0.55;;;;;;;17.43;30.64;96707.16;5095347;28;20058;-63
2021/12/20 04:08:08;;;;;;;1.23;0.75;;;;;;;17.42;30.54;96706.38;5094942;28;20032;-63
2021/12/20 04:10:34;;;;;;;1.20;0.90;;;;;;;17.44;30.71;96708.78;5081218;28;20037;-63
2021/12/20 04:13:00;;;;;;;0.75;0.52;;;;;;;17.44;30.78;96712.28;5074678;28;20036;-62
2021/12/20 04:15:26;;;;;;;1.00;0.70;;;;;;;17.45;30.71;96721.94;5074779;28;20036;-63
2021/12/20 04:17:51;;;;;;;0.80;0.60;;;;;;;17.46;30.43;96730.75;5073920;28;20039;-63
2021/12/20 04:20:17;;;;;;;0.90;0.65;;;;;;;17.45;30.32;96721.94;5074614;28;20071;-63
2021/12/20 04:22:42;;;;;;;0.88;0.77;;;;;;;17.46;30.12;96741.44;5074602;28;20068;-62
2021/12/20 04:25:08;;;;;;;1.17;0.70;;;;;;;17.46;30.28;96736.94;5076133;28;20028;-60
2021/12/20 04:27:34;;;;;;;2.65;0.70;;;;;;;17.46;30.50;96746.81;5074309;28;20052;-63
2021/12/20 04:30:08;;;;;;;0.70;0.50;;;;;;;17.48;30.54;96747.38;5074834;28;20120;-62
2021/12/20 04:32:33;;;;;;;0.70;0.43;;;;;;;17.49;30.61;96755.19;5074341;28;20036;-63
2021/12/20 04:34:59;;;;;;;1.30;0.80;;;;;;;17.49;30.30;96762.38;5075411;28;20028;-63
2021/12/20 04:37:25;;;;;;;1.02;0.75;;;;;;;17.51;30.34;96762.97;5094905;28;20145;-63
2021/12/20 04:39:50;;;;;;;1.20;0.70;;;;;;;17.51;30.30;96762.97;5094582;28;20518;-63
2021/12/20 04:42:16;;;;;;;1.42;0.77;;;;;;;17.49;30.15;96763.22;5087041;28;20052;-63
2021/12/20 04:44:42;;;;;;;0.98;0.68;;;;;;;17.48;29.94;96766.91;5074620;28;20127;-63
2021/12/20 04:47:08;;;;;;;1.00;0.77;;;;;;;17.48;30.39;96768.75;5074053;28;20046;-63
2021/12/20 04:49:33;;;;;;;0.95;0.77;;;;;;;17.48;30.05;96766.09;5083741;28;20114;-63
2021/12/20 04:51:59;;;;;;;0.93;0.60;;;;;;;17.48;30.35;96774.94;5094434;28;20067;-61
2021/12/20 04:54:25;;;;;;;1.35;0.90;;;;;;;17.50;30.23;96780.03;5094386;28;20032;-63
2021/12/20 04:56:51;;;;;;;0.98;0.57;;;;;;;17.48;30.30;96774.13;5093882;28;20031;-63
2021/12/20 04:59:16;;;;;;;1.40;0.98;;;;;;;17.47;30.32;96775.16;5093170;28;20100;-64
2021/12/20 05:01:42;;;;;;;1.10;0.82;;;;;;;17.47;30.38;96793.88;5073662;28;20479;-64
2021/12/20 05:04:08;;;;;;;2.40;0.93;;;;;;;17.45;30.15;96799.47;5074206;28;20493;-63
2021/12/20 05:06:33;;;;;;;1.13;0.65;;;;;;;17.46;30.39;96798.41;5073792;28;20509;-64
2021/12/20 05:09:02;;;;;;;1.92;0.88;;;;;;;17.46;30.13;96802.94;5073737;28;20037;-61
2021/12/20 05:11:29;;;;;;;1.33;0.73;;;;;;;17.45;30.37;96804.81;5073861;28;20040;-62
2021/12/20 05:13:55;;;;;;;2.38;0.85;;;;;;;17.44;30.03;96815.72;5073408;28;20043;-64
2021/12/20 05:16:21;;;;;;;1.35;0.80;;;;;;;17.44;29.63;96821.06;5073735;28;20032;-64
2021/12/20 05:18:47;;;;;;;1.75;0.90;;;;;;;17.43;30.09;96824.78;5073675;28;20429;-61
2021/12/20 05:21:12;;;;;;;1.55;0.82;;;;;;;17.45;29.88;96830.72;5073539;28;20036;-64
2021/12/20 05:23:38;;;;;;;1.48;0.85;;;;;;;17.45;30.13;96833.38;5073306;28;20398;-61
2021/12/20 05:26:03;;;;;;;1.85;0.77;;;;;;;17.45;30.40;96833.38;5073799;28;20035;-61
2021/12/20 05:28:29;;;;;;;1.02;0.70;;;;;;;17.44;30.30;96831.75;5072032;28;20051;-64
2021/12/20 05:30:54;;;;;;;0.52;0.50;;;;;;;17.46;30.02;96835.00;5073061;28;20055;-62
2021/12/20 05:33:21;;;;;;;2.97;1.00;;;;;;;17.47;30.02;96847.31;5072960;28;20039;-62
2021/12/20 05:35:47;;;;;;;1.25;0.52;;;;;;;17.49;29.94;96845.25;5073178;28;20111;-62
2021/12/20 05:38:12;;;;;;;1.50;0.60;;;;;;;17.49;30.13;96847.91;5078191;28;20042;-62
2021/12/20 05:40:38;;;;;;;1.08;0.55;;;;;;;17.49;29.90;96854.09;5093901;28;20028;-62
2021/12/20 05:43:04;;;;;;;0.90;0.68;;;;;;;17.50;30.10;96854.91;5093345;28;20044;-63
2021/12/20 05:45:30;;;;;;;1.33;0.85;;;;;;;17.50;30.07;96853.03;5093447;28;20036;-63
2021/12/20 05:47:56;;;;;;;1.55;0.63;;;;;;;17.50;29.87;96865.59;5093129;28;20491;-63
2021/12/20 05:50:23;;;;;;;1.45;0.90;;;;;;;17.52;29.94;96868.84;5092962;28;20122;-62
2021/12/20 05:52:49;;;;;;;1.80;0.85;;;;;;;17.51;29.75;96872.56;5092955;28;20032;-64
2021/12/20 05:55:15;;;;;;;2.47;1.30;;;;;;;17.50;29.54;96873.59;5093291;28;20077;-62
2021/12/20 05:57:41;;;;;;;3.85;0.75;;;;;;;17.49;29.16;96877.31;5093466;28;20514;-63
2021/12/20 06:00:12;;;;;;;1.63;0.80;;;;;;;17.49;29.43;96874.66;5084741;28;20029;-62
2021/12/20 06:02:39;;;;;;;1.60;1.10;;;;;;;17.48;29.38;96879.19;5072750;28;20032;-63
2021/12/20 06:05:05;;;;;;;3.35;1.10;;;;;;;17.47;29.06;96887.44;5072888;28;20032;-62
2021/12/20 06:07:31;;;;;;;1.83;0.80;;;;;;;17.47;29.36;96879.41;5072923;28;20028;-62
2021/12/20 06:09:57;;;;;;;1.35;0.80;;;;;;;17.47;29.43;96890.09;5072732;28;20036;-63
2021/12/20 06:12:22;;;;;;;1.73;0.63;;;;;;;17.47;29.20;96895.44;5071229;28;20438;-63
2021/12/20 06:14:48;;;;;;;1.52;1.00;;;;;;;17.47;29.02;96906.13;5072818;28;20051;-63
2021/12/20 06:17:14;;;;;;;1.02;0.82;;;;;;;17.49;29.04;96909.41;5072874;28;20028;-62
2021/12/20 06:19:40;;;;;;;4.80;1.08;;;;;;;17.49;29.08;96917.41;5072536;28;20487;-62
2021/12/20 06:22:07;;;;;;;1.02;0.73;;;;;;;17.50;29.21;96916.38;5072306;28;20029;-64
2021/12/20 06:24:33;;;;;;;1.73;0.85;;;;;;;17.50;29.62;96921.72;5072281;28;20495;-64
2021/12/20 06:26:59;;;;;;;2.05;0.98;;;;;;;17.48;29.48;96927.31;5073546;28;20055;-64
2021/12/20 06:29:26;;;;;;;1.48;1.00;;;;;;;17.49;29.61;96947.66;5092743;28;20038;-63
2021/12/20 06:31:51;;;;;;;2.35;0.80;;;;;;;17.48;29.68;96938.00;5092742;28;20115;-63
2021/12/20 06:34:17;;;;;;;1.30;1.00;;;;;;;17.49;29.57;96944.97;5092752;28;20043;-64
2021/12/20 06:36:43;;;;;;;1.27;0.80;;;;;;;17.52;29.53;96954.41;5092718;28;20031;-64
2021/12/20 06:39:09;;;;;;;8.73;1.17;;;;;;;17.54;30.29;96949.63;5092268;28;20395;-64
2021/12/20 06:41:35;;;;;;;14.25;1.10;;;;;;;17.60;30.27;96953.25;5092340;28;20034;-66
2021/12/20 06:44:02;;;;;;;1.77;0.95;;;;;;;17.64;30.07;96965.13;5092584;28;20031;-64
2021/12/20 06:46:28;;;;;;;4.20;1.10;;;;;;;17.67;29.99;96961.97;5092426;28;20032;-64
2021/12/20 06:48:53;;;;;;;3.47;1.45;;;;;;;17.70;30.02;96974.88;5091957;28;20039;-65
2021/12/20 06:51:19;;;;;;;4.13;1.65;;;;;;;17.71;30.09;96965.03;5092455;28;20032;-64
2021/12/20 06:53:44;;;;;;;3.72;1.75;;;;;;;17.75;30.01;96976.88;5092082;28;20059;-67
2021/12/20 06:56:12;;;;;;;9.70;1.85;;;;;;;17.79;30.04;96986.06;5088512;28;20513;-61
2021/12/20 06:58:38;;;;;;;5.45;1.85;;;;;;;17.80;29.70;96993.03;5090359;28;20081;-63
2021/12/20 07:01:04;;;;;;;9.20;1.75;;;;;;;17.81;30.07;96995.47;5089978;28;20036;-65
2021/12/20 07:03:29;;;;;;;3.67;1.80;;;;;;;17.81;30.32;96992.81;5091017;28;20471;-73
2021/12/20 07:05:55;;;;;;;4.78;1.67;;;;;;;17.86;30.37;97000.16;5092517;28;20108;-68
2021/12/20 07:08:22;;;;;;;3.42;1.70;;;;;;;17.88;30.59;97002.59;5089476;28;20032;-71
2021/12/20 07:10:48;;;;;;;2.38;1.50;;;;;;;17.91;30.80;97012.84;5082280;28;20032;-65
2021/12/20 07:13:13;;;;;;;3.45;1.30;;;;;;;17.92;30.73;97007.25;5078438;28;20033;-65
2021/12/20 07:15:39;;;;;;;3.05;1.67;;;;;;;17.95;30.87;97016.66;5078694;28;20032;-65
2021/12/20 07:18:05;;;;;;;3.22;1.35;;;;;;;17.97;31.12;97023.47;5073654;28;20035;-64
2021/12/20 07:20:31;;;;;;;3.20;1.42;;;;;;;18.00;31.07;97019.50;5082578;28;20044;-70
2021/12/20 07:22:56;;;;;;;3.42;1.65;;;;;;;18.03;30.95;97023.56;5083997;28;20035;-67
2021/12/20 07:25:22;;;;;;;3.47;1.67;;;;;;;18.05;31.15;97030.34;5091962;28;20185;-59
2021/12/20 07:27:49;;;;;;;2.55;1.50;;;;;;;18.10;31.00;97035.00;5084929;28;20574;-65
2021/12/20 07:30:15;;;;;;;3.15;1.25;;;;;;;18.14;31.06;97030.81;5077470;28;20507;-64
2021/12/20 07:32:41;;;;;;;3.83;1.70;;;;;;;18.16;31.19;97036.72;5091482;28;20032;-63
2021/12/20 07:35:07;;;;;;;4.85;1.42;;;;;;;18.20;31.30;97034.41;5079961;28;20040;-64
2021/12/20 07:37:32;;;;;;;4.57;1.50;;;;;;;18.23;31.16;97044.66;5089813;28;20401;-64
2021/12/20 07:39:58;;;;;;;3.97;1.60;;;;;;;18.23;31.01;97047.34;5084859;28;20073;-64
2021/12/20 07:42:23;;;;;;;3.58;1.60;;;;;;;18.23;31.15;97048.16;5078819;28;20090;-64
2021/12/20 07:44:49;;;;;;;2.20;1.23;;;;;;;18.25;30.82;97050.59;5072258;28;20036;-64
2021/12/20 07:47:14;;;;;;;3.00;1.30;;;;;;;18.26;30.75;97057.56;5071607;28;20087;-64
2021/12/20 07:49:40;;;;;;;3.17;1.60;;;;;;;18.26;30.53;97055.72;5080959;28;20040;-64
2021/12/20 07:52:06;;;;;;;3.72;1.52;;;;;;;18.26;30.55;97061.06;5078771;28;20032;-63
2021/12/20 07:54:32;;;;;;;5.65;1.77;;;;;;;18.26;30.61;97065.59;5075884;28;20040;-64
2021/12/20 07:56:58;;;;;;;2.15;1.27;;;;;;;18.25;30.41;97066.66;5087006;28;20085;-64
2021/12/20 07:59:23;;;;;;;3.47;1.42;;;;;;;18.27;30.28;97072.59;5077174;28;20028;-64
2021/12/20 08:01:50;;;;;;;4.88;1.80;;;;;;;18.27;30.32;97076.09;5095526;28;20042;-64
2021/12/20 08:04:16;;;;;;;4.00;1.75;;;;;;;18.26;30.28;97082.50;5095237;28;20023;-64
2021/12/20 08:06:43;;;;;;;3.17;1.90;;;;;;;18.27;30.30;97086.78;5085072;28;20395;-64
2021/12/20 08:09:10;;;;;;;3.08;1.90;;;;;;;18.27;30.21;97085.97;5076068;28;20036;-64
2021/12/20 08:11:36;;;;;;;4.32;2.30;;;;;;;18.28;30.67;97090.28;5074575;28;20032;-64
2021/12/20 08:14:03;;;;;;;9.77;3.92;;;;;;;18.29;30.98;97092.75;5074975;28;20459;-64
2021/12/20 08:16:29;;;;;;;9.77;4.75;;;;;;;18.33;31.30;97094.94;5075175;28;20529;-65
2021/12/20 08:18:54;;;;;;;10.63;5.03;;;;;;;18.34;31.15;97096.56;5079783;28;20039;-64
2021/12/20 08:21:21;;;;;;;10.82;5.90;;;;;;;18.35;31.25;97106.22;5078585;28;20028;-65
2021/12/20 08:23:47;;;;;;;11.13;5.68;;;;;;;18.34;31.22;97108.09;5074819;28;20498;-65
2021/12/20 08:26:12;;;;;;;12.25;5.85;;;;;;;18.36;31.35;97113.22;5074485;28;20060;-65
2021/12/20 08:28:38;;;;;;;11.70;6.30;;;;;;;18.39;31.54;97112.75;5074616;28;20048;-65
2021/12/20 08:31:05;;;;;;;11.85;7.50;;;;;;;18.40;31.52;97111.72;5075215;28;20037;-65
2021/12/20 08:33:32;;;;;;;16.80;6.55;;;;;;;18.41;31.47;97118.69;5074326;28;20111;-65
2021/12/20 08:36:03;;;;;;;10.10;5.75;;;;;;;18.43;31.32;97124.66;5074936;28;20118;-64
2021/12/20 08:38:28;;;;;;;15.68;5.63;;;;;;;18.43;31.24;97113.94;5074716;28;20565;-65
2021/12/20 08:40:54;;;;;;;9.20;5.65;;;;;;;18.44;31.23;97123.59;5074341;28;20060;-64
2021/12/20 08:43:21;;;;;;;9.88;5.45;;;;;;;18.43;31.19;97124.66;5074090;28;20039;-65
2021/12/20 08:45:47;;;;;;;8.30;5.05;;;;;;;18.44;31.07;97135.13;5074454;28;20089;-64
2021/12/20 08:48:13;;;;;;;9.48;4.90;;;;;;;18.43;31.20;97138.03;5073611;28;20085;-65
2021/12/20 08:50:39;;;;;;;12.05;4.57;;;;;;;18.40;31.38;97133.94;5074579;28;20040;-64
2021/12/20 08:53:06;;;;;;;9.10;3.92;;;;;;;18.42;31.28;97144.44;5074039;28;20032;-64
2021/12/20 08:55:32;;;;;;;9.52;4.35;;;;;;;18.42;31.54;97153.28;5073773;28;20033;-64
2021/12/20 08:57:58;;;;;;;10.10;4.28;;;;;;;18.44;31.27;97145.03;5073991;28;20043;-63
2021/12/20 09:00:30;;;;;;;6.85;3.35;;;;;;;18.44;31.21;97147.69;5073822;28;20036;-64
2021/12/20 09:02:56;;;;;;;7.72;4.10;;;;;;;18.44;31.26;97142.34;5073487;28;20086;-64
2021/12/20 09:05:23;;;;;;;9.45;5.75;;;;;;;18.44;31.40;97155.72;5073992;28;20040;-64
2021/12/20 09:07:49;;;;;;;8.45;5.10;;;;;;;18.44;31.54;97151.19;5073469;28;20077;-65
2021/12/20 09:10:16;;;;;;;16.30;5.18;;;;;;;18.47;31.80;97155.25;5073828;28;20041;-63
2021/12/20 09:12:44;;;;;;;9.77;4.80;;;;;;;18.49;32.02;97152.34;5073647;28;20043;-64
2021/12/20 09:15:16;;;;;;;8.45;4.90;;;;;;;18.50;32.08;97156.66;5073658;28;20029;-64
2021/12/20 09:18:14;;;;;;;9.02;4.72;;;;;;;18.49;32.41;97160.38;5073137;28;20031;-64
2021/12/20 09:20:40;;;;;;;10.02;4.68;;;;;;;18.52;32.57;97168.78;5069343;28;20568;-65
2021/12/20 09:23:08;;;;;;;8.07;4.03;;;;;;;18.53;32.68;97159.69;5073582;28;20099;-64
2021/12/20 09:25:37;;;;;;;8.77;4.30;;;;;;;18.54;32.86;97177.41;5088255;28;20028;-65
2021/12/20 09:28:08;;;;;;;11.73;4.20;;;;;;;18.56;32.89;97166.44;5085796;28;20055;-65
2021/12/20 09:30:34;;;;;;;7.25;3.67;;;;;;;18.56;33.15;97172.63;5073414;28;20044;-64
2021/12/20 09:33:00;;;;;;;5.78;3.40;;;;;;;18.56;33.22;97172.63;5073084;28;20442;-64
2021/12/20 09:35:26;;;;;;;7.80;3.78;;;;;;;18.59;33.44;97182.88;5073194;28;20055;-64
2021/12/20 09:37:52;;;;;;;6.75;4.28;;;;;;;18.59;33.50;97190.91;5073301;28;20032;-64
2021/12/20 09:40:33;;;;;;;6.40;2.88;;;;;;;18.61;33.24;97188.78;5072922;28;20040;-64
2021/12/20 09:43:02;;;;;;;8.48;4.22;;;;;;;18.63;33.34;97187.75;5072746;28;20036;-64
2021/12/20 09:45:29;;;;;;;7.88;2.60;;;;;;;18.64;33.02;97192.06;5073109;28;20032;-63
2021/12/20 09:47:55;;;;;;;6.72;2.92;;;;;;;18.65;32.97;97193.69;5073078;28;20043;-64
2021/12/20 09:50:20;;;;;;;4.78;2.97;;;;;;;18.66;32.76;97198.00;5072624;28;20029;-64
2021/12/20 09:52:47;;;;;;;4.00;2.83;;;;;;;18.66;32.40;97196.16;5072966;28;20035;-65
2021/12/20 09:55:15;;;;;;;6.60;3.42;;;;;;;18.66;32.51;97200.69;5073189;28;20046;-64
2021/12/20 09:57:42;;;;;;;5.15;2.65;;;;;;;18.64;32.52;97208.97;5072773;28;20032;-64
2021/12/20 10:00:10;;;;;;;5.15;2.40;;;;;;;18.64;32.41;97214.31;5080670;28;20020;-65
2021/12/20 10:02:36;;;;;;;3.17;1.98;;;;;;;18.61;32.30;97215.59;5091205;28;20052;-62
2021/12/20 10:05:02;;;;;;;3.63;2.65;;;;;;;18.63;32.19;97211.84;5072567;28;20047;-65
2021/12/20 10:07:29;;;;;;;3.42;2.22;;;;;;;18.62;32.23;97221.78;5072886;28;20093;-63
2021/12/20 10:09:55;;;;;;;4.28;2.03;;;;;;;18.60;32.12;97224.66;5072848;28;20040;-63
2021/12/20 10:12:26;;;;;;;3.30;2.13;;;;;;;18.61;32.20;97234.31;5072191;28;20041;-64
2021/12/20 10:14:57;;;;;;;3.95;1.98;;;;;;;18.61;31.91;97239.69;5072395;28;20056;-63
2021/12/20 10:17:26;;;;;;;2.42;1.60;;;;;;;18.63;31.80;97235.97;5071740;28;20127;-63
2021/12/20 10:19:52;;;;;;;5.28;1.75;;;;;;;18.63;31.83;97230.59;5072037;28;20032;-63
2021/12/20 10:22:29;;;;;;;2.10;1.50;;;;;;;18.63;31.70;97235.97;5072437;28;20028;-63
2021/12/20 10:24:58;;;;;;;4.18;1.42;;;;;;;18.63;31.59;97236.78;5070931;28;20036;-64
2021/12/20 10:27:29;;;;;;;3.60;1.85;;;;;;;18.64;31.54;97241.09;5071990;28;20055;-64
2021/12/20 10:29:54;;;;;;;2.37;1.33;;;;;;;18.63;31.52;97252.88;5071702;28;20033;-64
2021/12/20 10:32:40;;;;;;;4.22;1.65;;;;;;;18.63;31.57;97249.34;5088263;28;20273;-64
2021/12/20 10:35:50;;;;;;;2.53;1.52;;;;;;;18.64;31.70;97245.63;5072263;28;20483;-64
2021/12/20 10:38:31;;;;;;;3.90;1.70;;;;;;;18.66;31.30;97255.09;5072020;28;20028;-64
2021/12/20 10:41:04;;;;;;;3.67;2.05;;;;;;;18.65;31.06;97266.84;5072439;28;20048;-64
2021/12/20 10:43:48;;;;;;;3.25;2.20;;;;;;;18.65;31.09;97282.09;5072074;28;20036;-64
2021/12/20 10:46:18;;;;;;;2.45;1.30;;;;;;;18.64;31.11;97286.63;5079372;28;20044;-64
2021/12/20 10:48:47;;;;;;;3.28;1.70;;;;;;;18.63;30.92;97282.31;5072700;28;20032;-64
2021/12/20 10:51:23;;;;;;;3.08;1.90;;;;;;;18.63;31.39;97276.13;5072063;28;20040;-64
2021/12/20 10:53:57;;;;;;;2.25;1.42;;;;;;;18.61;31.17;97287.09;5071730;28;20106;-64
2021/12/20 10:56:23;;;;;;;2.60;1.42;;;;;;;18.60;31.03;97288.94;5071915;28;20029;-64
2021/12/20 10:58:50;;;;;;;3.92;1.48;;;;;;;18.61;31.29;97293.25;5072177;28;20037;-64
2021/12/20 11:01:23;;;;;;;3.78;1.60;;;;;;;18.62;31.18;97299.44;5071958;28;20109;-65
2021/12/20 11:04:00;;;;;;;1.52;1.25;;;;;;;18.61;31.20;97305.84;5072052;28;20111;-65
2021/12/20 11:06:39;;;;;;;2.40;1.52;;;;;;;18.62;31.18;97302.13;5071867;28;20037;-65
2021/12/20 11:09:20;;;;;;;2.05;1.23;;;;;;;18.63;31.01;97305.59;5071382;28;20039;-64
2021/12/20 11:11:51;;;;;;;4.93;1.45;;;;;;;18.63;30.78;97313.63;5072656;28;20036;-64
2021/12/20 11:14:20;;;;;;;4.00;1.38;;;;;;;18.60;30.86;97321.06;5071811;28;20105;-64
2021/12/20 11:16:51;;;;;;;2.78;1.17;;;;;;;18.58;30.87;97323.19;5071911;28;20563;-65
2021/12/20 11:19:25;;;;;;;1.92;1.33;;;;;;;18.56;30.85;97333.31;5071844;28;20048;-64
2021/12/20 11:22:00;;;;;;;2.10;1.20;;;;;;;18.56;30.75;97338.66;5072090;28;20416;-64
2021/12/20 11:24:30;;;;;;;3.05;1.30;;;;;;;18.57;30.69;97337.63;5072193;28;20036;-65
2021/12/20 11:26:58;;;;;;;2.70;1.27;;;;;;;18.55;30.52;97334.34;5072106;28;20038;-64
2021/12/20 11:29:24;;;;;;;2.67;1.27;;;;;;;18.54;30.53;97334.56;5074332;28;20291;-64
2021/12/20 11:31:51;;;;;;;1.83;1.20;;;;;;;18.51;30.36;97343.06;5075575;28;20036;-64
2021/12/20 11:34:16;;;;;;;1.85;1.10;;;;;;;18.50;30.38;97352.94;5075793;28;20028;-64
2021/12/20 11:36:42;;;;;;;1.88;1.02;;;;;;;18.49;30.06;97362.03;5075260;28;20033;-64
2021/12/20 11:39:08;;;;;;;2.30;1.30;;;;;;;18.47;30.13;97361.44;5074791;28;20035;-64
2021/12/20 11:41:35;;;;;;;2.70;1.40;;;;;;;18.47;30.07;97360.63;5075407;28;20032;-64
2021/12/20 11:44:03;;;;;;;2.45;1.25;;;;;;;18.45;30.05;97368.88;5075079;28;20044;-65
2021/12/20 11:46:34;;;;;;;2.33;1.20;;;;;;;18.45;30.26;97368.88;5075158;28;20040;-63
2021/12/20 11:49:00;;;;;;;1.73;1.10;;;;;;;18.44;30.38;97377.97;5075316;28;20115;-65